sensor_id;sensor_type;location;lat;lon;timestamp;pressure;altitude;pressure_sealevel;temperature;humidity
48035;BME280;33812;46.480;6.834;2023-03-20T00:03:54;93962.94;;;18.53;44.21
48035;BME280;33812;46.480;6.834;2023-03-20T00:07:57;93976.94;;;18.66;44.03
48035;BME280;33812;46.480;6.834;2023-03-20T00:11:59;93977.25;;;18.96;43.52
48035;BME280;33812;46.480;6.834;2023-03-20T00:16:01;93974.94;;;18.94;43.71
48035;BME280;33812;46.480;6.834;2023-03-20T00:20:13;93980.50;;;18.91;44.20
48035;BME280;33812;46.480;6.834;2023-03-20T00:24:16;93978.38;;;19.26;43.35
48035;BME280;33812;46.480;6.834;2023-03-20T00:28:36;93975.69;;;18.95;43.20
48035;BME280;33812;46.480;6.834;2023-03-20T00:32:40;93980.91;;;18.89;43.37
48035;BME280;33812;46.480;6.834;2023-03-20T00:36:43;93984.81;;;19.16;43.34
48035;BME280;33812;46.480;6.834;2023-03-20T00:40:45;93979.25;;;19.43;42.70
48035;BME280;33812;46.480;6.834;2023-03-20T00:44:49;93967.78;;;19.45;42.38
48035;BME280;33812;46.480;6.834;2023-03-20T00:48:53;93974.97;;;19.39;42.34
48035;BME280;33812;46.480;6.834;2023-03-20T00:52:57;93963.47;;;19.44;42.25
48035;BME280;33812;46.480;6.834;2023-03-20T00:57:01;93969.94;;;19.33;42.18
48035;BME280;33812;46.480;6.834;2023-03-20T01:01:05;93962.91;;;19.32;42.04
48035;BME280;33812;46.480;6.834;2023-03-20T01:05:07;93960.78;;;19.40;42.15
48035;BME280;33812;46.480;6.834;2023-03-20T01:09:11;93956.84;;;19.41;41.87
48035;BME280;33812;46.480;6.834;2023-03-20T01:13:18;93958.41;;;19.18;41.80
48035;BME280;33812;46.480;6.834;2023-03-20T01:17:22;93951.75;;;19.16;42.71
48035;BME280;33812;46.480;6.834;2023-03-20T01:21:24;93949.97;;;19.29;42.29
48035;BME280;33812;46.480;6.834;2023-03-20T01:25:28;93944.94;;;19.24;42.24
48035;BME280;33812;46.480;6.834;2023-03-20T01:29:30;93943.59;;;19.08;42.10
48035;BME280;33812;46.480;6.834;2023-03-20T01:33:32;93951.19;;;19.01;42.70
48035;BME280;33812;46.480;6.834;2023-03-20T01:37:34;93939.63;;;19.13;42.32
48035;BME280;33812;46.480;6.834;2023-03-20T01:41:37;93937.84;;;19.23;41.98
48035;BME280;33812;46.480;6.834;2023-03-20T01:45:55;93936.53;;;19.31;41.81
48035;BME280;33812;46.480;6.834;2023-03-20T01:50:29;93939.00;;;19.26;42.16
48035;BME280;33812;46.480;6.834;2023-03-20T01:54:34;93937.66;;;19.14;41.92
48035;BME280;33812;46.480;6.834;2023-03-20T01:58:40;93928.03;;;19.22;41.80
48035;BME280;33812;46.480;6.834;2023-03-20T02:02:44;93930.69;;;19.29;42.02
48035;BME280;33812;46.480;6.834;2023-03-20T02:06:47;93931.38;;;19.33;41.69
48035;BME280;33812;46.480;6.834;2023-03-20T02:10:49;93930.47;;;19.40;41.73
48035;BME280;33812;46.480;6.834;2023-03-20T02:14:53;93923.88;;;19.34;41.67
48035;BME280;33812;46.480;6.834;2023-03-20T02:18:56;93929.41;;;18.34;42.55
48035;BME280;33812;46.480;6.834;2023-03-20T02:23:30;93940.72;;;18.92;42.46
48035;BME280;33812;46.480;6.834;2023-03-20T02:27:56;93939.19;;;18.91;42.30
48035;BME280;33812;46.480;6.834;2023-03-20T02:42:07;93943.72;;;19.01;42.27
48035;BME280;33812;46.480;6.834;2023-03-20T02:46:15;93947.28;;;19.26;41.75
48035;BME280;33812;46.480;6.834;2023-03-20T02:50:26;93955.09;;;19.03;41.69
48035;BME280;33812;46.480;6.834;2023-03-20T02:54:37;93948.88;;;18.99;41.91
48035;BME280;33812;46.480;6.834;2023-03-20T02:58:48;93946.13;;;19.23;41.48
48035;BME280;33812;46.480;6.834;2023-03-20T03:02:57;93946.53;;;19.21;41.58
48035;BME280;33812;46.480;6.834;2023-03-20T03:07:01;93948.75;;;19.30;41.48
48035;BME280;33812;46.480;6.834;2023-03-20T03:11:07;93954.63;;;19.32;41.19
48035;BME280;33812;46.480;6.834;2023-03-20T03:15:15;93959.88;;;18.99;41.20
48035;BME280;33812;46.480;6.834;2023-03-20T03:19:19;93953.78;;;18.88;42.25
48035;BME280;33812;46.480;6.834;2023-03-20T03:23:27;93961.53;;;18.96;42.03
48035;BME280;33812;46.480;6.834;2023-03-20T03:27:34;93963.38;;;19.27;41.37
48035;BME280;33812;46.480;6.834;2023-03-20T03:31:38;93965.06;;;19.21;41.60
48035;BME280;33812;46.480;6.834;2023-03-20T03:35:42;93971.03;;;19.40;41.13
48035;BME280;33812;46.480;6.834;2023-03-20T03:39:49;93966.56;;;19.02;41.35
48035;BME280;33812;46.480;6.834;2023-03-20T03:43:59;93959.47;;;19.01;41.36
48035;BME280;33812;46.480;6.834;2023-03-20T03:48:10;93962.44;;;18.86;41.91
48035;BME280;33812;46.480;6.834;2023-03-20T03:52:18;93960.88;;;19.13;41.70
48035;BME280;33812;46.480;6.834;2023-03-20T03:56:23;93955.00;;;19.35;41.10
48035;BME280;33812;46.480;6.834;2023-03-20T04:00:28;93966.25;;;18.96;41.33
48035;BME280;33812;46.480;6.834;2023-03-20T04:04:34;93967.91;;;18.90;41.19
48035;BME280;33812;46.480;6.834;2023-03-20T04:08:38;93975.47;;;18.85;41.63
48035;BME280;33812;46.480;6.834;2023-03-20T04:12:42;93972.25;;;19.15;41.37
48035;BME280;33812;46.480;6.834;2023-03-20T04:16:44;93969.00;;;19.20;41.15
48035;BME280;33812;46.480;6.834;2023-03-20T04:20:48;93966.38;;;19.37;41.66
48035;BME280;33812;46.480;6.834;2023-03-20T04:24:51;93965.66;;;19.32;40.66
48035;BME280;33812;46.480;6.834;2023-03-20T04:28:53;93966.13;;;19.27;40.57
48035;BME280;33812;46.480;6.834;2023-03-20T04:32:54;93963.88;;;19.22;40.81
48035;BME280;33812;46.480;6.834;2023-03-20T04:37:02;93948.75;;;19.30;40.68
48035;BME280;33812;46.480;6.834;2023-03-20T04:41:05;93946.41;;;19.29;40.46
48035;BME280;33812;46.480;6.834;2023-03-20T04:45:09;93945.38;;;19.43;40.28
48035;BME280;33812;46.480;6.834;2023-03-20T04:49:11;93947.22;;;19.50;40.42
48035;BME280;33812;46.480;6.834;2023-03-20T04:53:14;93950.03;;;19.46;40.35
48035;BME280;33812;46.480;6.834;2023-03-20T04:57:16;93956.78;;;18.97;40.34
48035;BME280;33812;46.480;6.834;2023-03-20T05:01:18;93952.22;;;18.87;40.63
48035;BME280;33812;46.480;6.834;2023-03-20T05:05:20;93961.69;;;19.09;40.57
48035;BME280;33812;46.480;6.834;2023-03-20T05:09:24;93962.69;;;18.95;40.94
48035;BME280;33812;46.480;6.834;2023-03-20T05:13:26;93966.13;;;19.03;40.23
48035;BME280;33812;46.480;6.834;2023-03-20T05:17:27;93964.97;;;19.01;40.38
48035;BME280;33812;46.480;6.834;2023-03-20T05:21:30;93967.84;;;18.42;41.22
48035;BME280;33812;46.480;6.834;2023-03-20T05:25:34;93975.56;;;18.23;41.79
48035;BME280;33812;46.480;6.834;2023-03-20T05:29:35;93962.53;;;18.27;41.68
48035;BME280;33812;46.480;6.834;2023-03-20T05:33:37;93967.78;;;18.45;41.43
48035;BME280;33812;46.480;6.834;2023-03-20T05:37:39;93961.84;;;18.99;41.37
48035;BME280;33812;46.480;6.834;2023-03-20T05:41:43;93966.34;;;18.89;41.23
48035;BME280;33812;46.480;6.834;2023-03-20T05:45:46;93976.41;;;18.99;40.88
48035;BME280;33812;46.480;6.834;2023-03-20T05:49:48;93961.78;;;19.02;40.36
48035;BME280;33812;46.480;6.834;2023-03-20T05:53:50;93962.16;;;19.04;40.51
48035;BME280;33812;46.480;6.834;2023-03-20T05:57:53;93959.91;;;19.23;40.70
48035;BME280;33812;46.480;6.834;2023-03-20T06:01:55;93962.34;;;19.41;41.40
48035;BME280;33812;46.480;6.834;2023-03-20T06:05:56;93953.09;;;19.52;41.09
48035;BME280;33812;46.480;6.834;2023-03-20T06:09:58;93954.56;;;19.56;41.36
48035;BME280;33812;46.480;6.834;2023-03-20T06:14:01;93955.19;;;19.44;41.05
48035;BME280;33812;46.480;6.834;2023-03-20T06:18:03;93955.91;;;19.28;41.25
48035;BME280;33812;46.480;6.834;2023-03-20T06:22:05;93960.63;;;19.27;41.60
48035;BME280;33812;46.480;6.834;2023-03-20T06:26:07;93977.38;;;18.89;41.71
48035;BME280;33812;46.480;6.834;2023-03-20T06:30:12;93974.72;;;18.81;42.21
48035;BME280;33812;46.480;6.834;2023-03-20T06:34:14;93970.13;;;18.75;38.46
48035;BME280;33812;46.480;6.834;2023-03-20T06:38:16;93967.06;;;18.41;41.23
48035;BME280;33812;46.480;6.834;2023-03-20T06:42:18;93973.81;;;18.64;41.45
48035;BME280;33812;46.480;6.834;2023-03-20T06:46:21;93980.38;;;18.98;40.91
48035;BME280;33812;46.480;6.834;2023-03-20T06:50:23;93971.91;;;18.85;41.37
48035;BME280;33812;46.480;6.834;2023-03-20T06:54:25;93971.28;;;19.01;41.49
48035;BME280;33812;46.480;6.834;2023-03-20T06:58:27;93967.19;;;19.09;41.25
48035;BME280;33812;46.480;6.834;2023-03-20T07:02:30;93960.25;;;19.01;42.38
48035;BME280;33812;46.480;6.834;2023-03-20T07:06:32;93968.84;;;18.79;41.94
48035;BME280;33812;46.480;6.834;2023-03-20T07:10:34;93970.91;;;18.99;41.87
48035;BME280;33812;46.480;6.834;2023-03-20T07:14:36;93974.72;;;19.05;41.80
48035;BME280;33812;46.480;6.834;2023-03-20T07:18:40;93974.13;;;18.94;42.26
48035;BME280;33812;46.480;6.834;2023-03-20T07:22:42;93975.88;;;18.84;42.32
48035;BME280;33812;46.480;6.834;2023-03-20T07:26:44;93985.22;;;18.90;42.44
48035;BME280;33812;46.480;6.834;2023-03-20T07:30:46;93979.13;;;19.03;42.00
48035;BME280;33812;46.480;6.834;2023-03-20T07:34:49;93983.66;;;18.89;42.20
48035;BME280;33812;46.480;6.834;2023-03-20T07:38:51;93986.84;;;18.60;42.50
48035;BME280;33812;46.480;6.834;2023-03-20T07:42:53;93988.47;;;18.57;42.78
48035;BME280;33812;46.480;6.834;2023-03-20T07:46:54;93982.97;;;18.81;42.49
48035;BME280;33812;46.480;6.834;2023-03-20T07:50:57;93993.53;;;19.11;42.49
48035;BME280;33812;46.480;6.834;2023-03-20T07:54:59;93996.00;;;19.05;42.04
48035;BME280;33812;46.480;6.834;2023-03-20T07:59:01;93992.97;;;19.23;41.67
48035;BME280;33812;46.480;6.834;2023-03-20T08:03:03;93990.28;;;18.92;40.89
48035;BME280;33812;46.480;6.834;2023-03-20T08:07:06;94005.28;;;18.91;42.53
48035;BME280;33812;46.480;6.834;2023-03-20T08:11:08;94013.28;;;19.05;41.84
48035;BME280;33812;46.480;6.834;2023-03-20T08:15:10;94016.34;;;18.87;42.10
48035;BME280;33812;46.480;6.834;2023-03-20T08:19:12;94030.13;;;18.87;42.24
48035;BME280;33812;46.480;6.834;2023-03-20T08:23:15;94035.50;;;19.22;41.78
48035;BME280;33812;46.480;6.834;2023-03-20T08:27:17;94041.31;;;19.28;41.13
48035;BME280;33812;46.480;6.834;2023-03-20T08:31:19;94039.91;;;19.16;41.20
48035;BME280;33812;46.480;6.834;2023-03-20T08:35:21;94043.97;;;19.07;41.93
48035;BME280;33812;46.480;6.834;2023-03-20T08:39:24;94048.34;;;19.05;41.29
48035;BME280;33812;46.480;6.834;2023-03-20T08:43:26;94037.91;;;19.20;42.07
48035;BME280;33812;46.480;6.834;2023-03-20T08:47:28;94027.00;;;19.09;41.52
48035;BME280;33812;46.480;6.834;2023-03-20T08:51:30;94035.09;;;19.24;41.79
48035;BME280;33812;46.480;6.834;2023-03-20T08:55:33;94045.03;;;19.41;41.64
48035;BME280;33812;46.480;6.834;2023-03-20T08:59:35;94047.25;;;19.50;41.60
48035;BME280;33812;46.480;6.834;2023-03-20T09:03:37;94045.47;;;19.40;41.48
48035;BME280;33812;46.480;6.834;2023-03-20T09:07:39;94046.03;;;19.51;41.28
48035;BME280;33812;46.480;6.834;2023-03-20T09:11:42;94047.63;;;19.52;41.60
48035;BME280;33812;46.480;6.834;2023-03-20T09:15:44;94041.25;;;19.55;41.41
48035;BME280;33812;46.480;6.834;2023-03-20T09:19:46;94048.63;;;19.62;41.53
48035;BME280;33812;46.480;6.834;2023-03-20T09:23:47;94046.69;;;19.59;41.15
48035;BME280;33812;46.480;6.834;2023-03-20T09:27:51;94045.06;;;19.62;41.33
48035;BME280;33812;46.480;6.834;2023-03-20T09:31:55;94048.00;;;19.75;40.89
48035;BME280;33812;46.480;6.834;2023-03-20T09:35:56;94043.59;;;19.77;40.89
48035;BME280;33812;46.480;6.834;2023-03-20T09:39:58;94040.03;;;19.80;40.68
48035;BME280;33812;46.480;6.834;2023-03-20T09:44:08;94038.69;;;19.89;40.77
48035;BME280;33812;46.480;6.834;2023-03-20T09:48:14;94035.94;;;19.89;40.76
48035;BME280;33812;46.480;6.834;2023-03-20T09:52:23;94029.50;;;19.96;41.16
48035;BME280;33812;46.480;6.834;2023-03-20T09:56:28;94036.84;;;20.02;40.85
48035;BME280;33812;46.480;6.834;2023-03-20T10:00:33;94035.53;;;20.11;40.70
48035;BME280;33812;46.480;6.834;2023-03-20T10:04:37;94035.88;;;20.13;40.64
48035;BME280;33812;46.480;6.834;2023-03-20T10:08:39;94042.88;;;20.17;40.82
48035;BME280;33812;46.480;6.834;2023-03-20T10:12:49;94046.78;;;20.20;40.47
48035;BME280;33812;46.480;6.834;2023-03-20T10:17:07;94045.06;;;20.26;40.40
48035;BME280;33812;46.480;6.834;2023-03-20T10:21:15;94050.53;;;20.30;40.34
48035;BME280;33812;46.480;6.834;2023-03-20T10:25:28;94053.22;;;20.34;40.36
48035;BME280;33812;46.480;6.834;2023-03-20T10:29:41;94056.69;;;20.38;40.41
48035;BME280;33812;46.480;6.834;2023-03-20T10:33:55;94064.47;;;20.43;40.49
48035;BME280;33812;46.480;6.834;2023-03-20T10:38:11;94065.25;;;20.44;40.18
48035;BME280;33812;46.480;6.834;2023-03-20T10:42:18;94073.53;;;20.44;40.71
48035;BME280;33812;46.480;6.834;2023-03-20T10:46:25;94068.47;;;20.38;40.22
48035;BME280;33812;46.480;6.834;2023-03-20T10:50:32;94074.44;;;20.37;40.42
48035;BME280;33812;46.480;6.834;2023-03-20T10:54:39;94076.50;;;20.33;40.10
48035;BME280;33812;46.480;6.834;2023-03-20T10:58:46;94070.84;;;20.20;39.92
48035;BME280;33812;46.480;6.834;2023-03-20T11:02:49;94079.69;;;20.11;39.62
48035;BME280;33812;46.480;6.834;2023-03-20T11:06:56;94074.50;;;20.13;40.32
48035;BME280;33812;46.480;6.834;2023-03-20T11:11:01;94069.72;;;20.17;40.44
48035;BME280;33812;46.480;6.834;2023-03-20T11:15:14;94070.47;;;20.17;40.24
48035;BME280;33812;46.480;6.834;2023-03-20T11:19:20;94062.56;;;20.20;40.04
48035;BME280;33812;46.480;6.834;2023-03-20T11:23:26;94064.19;;;20.17;39.61
48035;BME280;33812;46.480;6.834;2023-03-20T11:27:31;94069.72;;;20.17;40.36
48035;BME280;33812;46.480;6.834;2023-03-20T11:31:34;94074.81;;;20.19;40.41
48035;BME280;33812;46.480;6.834;2023-03-20T11:35:37;94077.69;;;20.11;40.34
48035;BME280;33812;46.480;6.834;2023-03-20T11:39:52;94067.38;;;20.15;39.97
48035;BME280;33812;46.480;6.834;2023-03-20T11:43:56;94067.22;;;20.23;39.94
48035;BME280;33812;46.480;6.834;2023-03-20T11:48:00;94066.22;;;20.33;39.20
48035;BME280;33812;46.480;6.834;2023-03-20T11:52:10;94061.69;;;20.43;40.09
48035;BME280;33812;46.480;6.834;2023-03-20T11:56:21;94067.28;;;20.39;40.15
48035;BME280;33812;46.480;6.834;2023-03-20T12:00:25;94057.38;;;20.42;40.09
48035;BME280;33812;46.480;6.834;2023-03-20T12:04:30;94055.19;;;20.33;39.53
48035;BME280;33812;46.480;6.834;2023-03-20T12:08:35;94063.41;;;20.37;40.19
48035;BME280;33812;46.480;6.834;2023-03-20T12:12:43;94061.00;;;20.39;39.86
48035;BME280;33812;46.480;6.834;2023-03-20T12:16:49;94058.94;;;20.43;39.92
48035;BME280;33812;46.480;6.834;2023-03-20T12:21:02;94049.44;;;20.44;40.42
48035;BME280;33812;46.480;6.834;2023-03-20T12:25:11;94048.75;;;20.40;39.61
48035;BME280;33812;46.480;6.834;2023-03-20T12:29:24;94045.56;;;20.41;39.80
48035;BME280;33812;46.480;6.834;2023-03-20T12:33:36;94044.28;;;20.46;40.26
48035;BME280;33812;46.480;6.834;2023-03-20T12:37:39;94032.44;;;20.46;40.15
48035;BME280;33812;46.480;6.834;2023-03-20T12:41:51;94030.91;;;20.45;39.85
48035;BME280;33812;46.480;6.834;2023-03-20T12:46:05;94033.94;;;20.50;40.00
48035;BME280;33812;46.480;6.834;2023-03-20T12:50:17;94026.00;;;20.52;39.36
48035;BME280;33812;46.480;6.834;2023-03-20T12:54:40;94007.72;;;20.59;40.52
48035;BME280;33812;46.480;6.834;2023-03-20T12:58:52;94015.06;;;20.65;40.23
48035;BME280;33812;46.480;6.834;2023-03-20T13:03:07;94013.53;;;20.64;39.38
48035;BME280;33812;46.480;6.834;2023-03-20T13:07:16;94015.16;;;20.62;39.01
48035;BME280;33812;46.480;6.834;2023-03-20T13:11:26;94001.34;;;20.62;39.31
48035;BME280;33812;46.480;6.834;2023-03-20T13:15:40;94004.09;;;20.62;38.82
48035;BME280;33812;46.480;6.834;2023-03-20T13:19:52;93995.75;;;20.65;38.96
48035;BME280;33812;46.480;6.834;2023-03-20T13:24:03;93987.81;;;20.68;39.01
48035;BME280;33812;46.480;6.834;2023-03-20T13:28:12;93988.91;;;20.70;39.90
48035;BME280;33812;46.480;6.834;2023-03-20T13:32:24;93978.22;;;20.72;40.06
48035;BME280;33812;46.480;6.834;2023-03-20T13:36:41;93970.03;;;20.69;38.70
48035;BME280;33812;46.480;6.834;2023-03-20T13:40:51;93956.91;;;20.73;39.20
48035;BME280;33812;46.480;6.834;2023-03-20T13:44:59;93961.13;;;20.77;38.43
48035;BME280;33812;46.480;6.834;2023-03-20T13:49:07;93955.53;;;20.81;39.32
48035;BME280;33812;46.480;6.834;2023-03-20T13:53:24;93953.91;;;20.84;39.46
48035;BME280;33812;46.480;6.834;2023-03-20T13:57:58;93943.19;;;20.86;39.91
48035;BME280;33812;46.480;6.834;2023-03-20T14:02:14;93939.66;;;20.85;38.69
48035;BME280;33812;46.480;6.834;2023-03-20T14:06:48;93939.56;;;20.89;39.36
48035;BME280;33812;46.480;6.834;2023-03-20T14:11:06;93935.94;;;20.92;40.16
48035;BME280;33812;46.480;6.834;2023-03-20T14:15:12;93941.84;;;20.94;39.46
48035;BME280;33812;46.480;6.834;2023-03-20T14:19:17;93938.31;;;20.94;38.58
48035;BME280;33812;46.480;6.834;2023-03-20T14:23:29;93931.13;;;20.96;38.72
48035;BME280;33812;46.480;6.834;2023-03-20T14:27:52;93928.72;;;20.98;39.09
48035;BME280;33812;46.480;6.834;2023-03-20T14:32:02;93919.22;;;20.99;38.91
48035;BME280;33812;46.480;6.834;2023-03-20T14:36:18;93924.31;;;21.01;38.44
48035;BME280;33812;46.480;6.834;2023-03-20T14:40:22;93918.34;;;21.02;39.65
48035;BME280;33812;46.480;6.834;2023-03-20T14:44:36;93933.28;;;21.05;38.97
48035;BME280;33812;46.480;6.834;2023-03-20T14:48:42;93931.28;;;21.06;39.69
48035;BME280;33812;46.480;6.834;2023-03-20T14:52:58;93928.53;;;21.06;38.53
48035;BME280;33812;46.480;6.834;2023-03-20T14:57:08;93934.06;;;21.06;38.87
48035;BME280;33812;46.480;6.834;2023-03-20T15:01:17;93931.03;;;21.00;38.53
48035;BME280;33812;46.480;6.834;2023-03-20T15:05:25;93925.19;;;20.98;38.36
48035;BME280;33812;46.480;6.834;2023-03-20T15:09:30;93928.03;;;20.94;38.26
48035;BME280;33812;46.480;6.834;2023-03-20T15:13:34;93928.78;;;20.95;38.04
48035;BME280;33812;46.480;6.834;2023-03-20T15:17:42;93919.38;;;20.92;38.38
48035;BME280;33812;46.480;6.834;2023-03-20T15:21:46;93922.06;;;20.96;38.36
48035;BME280;33812;46.480;6.834;2023-03-20T15:25:49;93922.91;;;20.93;38.12
48035;BME280;33812;46.480;6.834;2023-03-20T15:29:52;93923.66;;;20.93;37.62
48035;BME280;33812;46.480;6.834;2023-03-20T15:33:57;93920.25;;;20.89;37.06
48035;BME280;33812;46.480;6.834;2023-03-20T15:38:04;93922.66;;;20.87;37.90
48035;BME280;33812;46.480;6.834;2023-03-20T15:42:11;93919.81;;;20.90;38.14
48035;BME280;33812;46.480;6.834;2023-03-20T15:46:13;93918.66;;;20.88;37.06
48035;BME280;33812;46.480;6.834;2023-03-20T15:50:16;93914.63;;;20.93;37.42
48035;BME280;33812;46.480;6.834;2023-03-20T15:54:19;93910.28;;;20.92;37.94
48035;BME280;33812;46.480;6.834;2023-03-20T15:58:21;93912.78;;;20.86;37.54
48035;BME280;33812;46.480;6.834;2023-03-20T16:02:25;93914.09;;;20.81;36.46
48035;BME280;33812;46.480;6.834;2023-03-20T16:06:28;93913.75;;;20.79;37.26
48035;BME280;33812;46.480;6.834;2023-03-20T16:10:31;93913.00;;;20.78;36.68
48035;BME280;33812;46.480;6.834;2023-03-20T16:14:35;93911.00;;;20.79;36.79
48035;BME280;33812;46.480;6.834;2023-03-20T16:18:38;93907.13;;;20.76;37.21
48035;BME280;33812;46.480;6.834;2023-03-20T16:22:42;93907.47;;;20.78;36.96
48035;BME280;33812;46.480;6.834;2023-03-20T16:26:48;93906.50;;;20.85;37.08
48035;BME280;33812;46.480;6.834;2023-03-20T16:30:51;93907.19;;;20.89;36.64
48035;BME280;33812;46.480;6.834;2023-03-20T16:34:56;93912.22;;;20.95;37.32
48035;BME280;33812;46.480;6.834;2023-03-20T16:39:07;93919.66;;;20.98;38.16
48035;BME280;33812;46.480;6.834;2023-03-20T16:43:13;93914.44;;;21.00;37.41
48035;BME280;33812;46.480;6.834;2023-03-20T16:47:20;93913.34;;;20.97;37.40
48035;BME280;33812;46.480;6.834;2023-03-20T16:51:24;93922.81;;;20.96;37.34
48035;BME280;33812;46.480;6.834;2023-03-20T16:55:30;93920.16;;;20.93;38.22
48035;BME280;33812;46.480;6.834;2023-03-20T16:59:37;93926.88;;;20.92;37.43
48035;BME280;33812;46.480;6.834;2023-03-20T17:03:46;93924.53;;;20.90;37.56
48035;BME280;33812;46.480;6.834;2023-03-20T17:07:49;93929.03;;;20.84;37.00
48035;BME280;33812;46.480;6.834;2023-03-20T17:12:00;93931.63;;;20.91;38.14
48035;BME280;33812;46.480;6.834;2023-03-20T17:16:03;93921.09;;;20.86;36.88
48035;BME280;33812;46.480;6.834;2023-03-20T17:20:06;93936.31;;;20.94;38.86
48035;BME280;33812;46.480;6.834;2023-03-20T17:24:11;93922.41;;;20.64;34.06
48035;BME280;33812;46.480;6.834;2023-03-20T17:28:21;93935.91;;;20.42;33.44
48035;BME280;33812;46.480;6.834;2023-03-20T17:32:24;93940.19;;;20.26;33.25
48035;BME280;33812;46.480;6.834;2023-03-20T17:36:27;93932.00;;;20.02;33.67
48035;BME280;33812;46.480;6.834;2023-03-20T17:40:30;93935.00;;;20.12;33.91
48035;BME280;33812;46.480;6.834;2023-03-20T17:44:33;93938.16;;;20.47;33.87
48035;BME280;33812;46.480;6.834;2023-03-20T17:48:35;93942.91;;;20.63;34.77
48035;BME280;33812;46.480;6.834;2023-03-20T17:52:37;93946.19;;;20.58;34.62
48035;BME280;33812;46.480;6.834;2023-03-20T17:56:39;93951.72;;;20.41;35.53
48035;BME280;33812;46.480;6.834;2023-03-20T18:00:43;93963.34;;;20.49;36.04
48035;BME280;33812;46.480;6.834;2023-03-20T18:04:45;93945.34;;;20.61;36.29
48035;BME280;33812;46.480;6.834;2023-03-20T18:08:47;93949.66;;;20.62;36.85
48035;BME280;33812;46.480;6.834;2023-03-20T18:12:49;93952.78;;;20.64;35.88
48035;BME280;33812;46.480;6.834;2023-03-20T18:16:52;93953.09;;;20.50;36.54
48035;BME280;33812;46.480;6.834;2023-03-20T18:20:54;93956.53;;;20.37;36.90
48035;BME280;33812;46.480;6.834;2023-03-20T18:24:57;93954.03;;;20.43;37.85
48035;BME280;33812;46.480;6.834;2023-03-20T18:28:59;93954.91;;;20.57;38.67
48035;BME280;33812;46.480;6.834;2023-03-20T18:33:03;93945.69;;;20.63;39.28
48035;BME280;33812;46.480;6.834;2023-03-20T18:37:11;93951.28;;;20.60;38.72
48035;BME280;33812;46.480;6.834;2023-03-20T18:41:14;93953.63;;;20.61;40.95
48035;BME280;33812;46.480;6.834;2023-03-20T18:45:16;93946.75;;;20.70;40.70
48035;BME280;33812;46.480;6.834;2023-03-20T18:49:19;93949.63;;;20.29;40.39
48035;BME280;33812;46.480;6.834;2023-03-20T18:53:21;93944.47;;;20.11;41.08
48035;BME280;33812;46.480;6.834;2023-03-20T18:57:23;93936.19;;;20.11;40.42
48035;BME280;33812;46.480;6.834;2023-03-20T19:01:26;93938.28;;;20.07;40.41
48035;BME280;33812;46.480;6.834;2023-03-20T19:05:29;93937.88;;;20.25;40.72
48035;BME280;33812;46.480;6.834;2023-03-20T19:09:31;93943.34;;;20.08;40.49
48035;BME280;33812;46.480;6.834;2023-03-20T19:13:33;93939.72;;;20.48;40.70
48035;BME280;33812;46.480;6.834;2023-03-20T19:17:36;93939.13;;;20.57;40.76
48035;BME280;33812;46.480;6.834;2023-03-20T19:21:39;93937.47;;;20.60;43.06
48035;BME280;33812;46.480;6.834;2023-03-20T19:25:43;93937.75;;;20.65;37.62
48035;BME280;33812;46.480;6.834;2023-03-20T19:29:45;93938.75;;;20.38;38.64
48035;BME280;33812;46.480;6.834;2023-03-20T19:33:48;93938.81;;;20.18;39.26
48035;BME280;33812;46.480;6.834;2023-03-20T19:37:51;93939.31;;;19.92;39.58
48035;BME280;33812;46.480;6.834;2023-03-20T19:41:53;93928.00;;;19.87;40.15
48035;BME280;33812;46.480;6.834;2023-03-20T19:45:55;93931.03;;;19.72;40.05
48035;BME280;33812;46.480;6.834;2023-03-20T19:49:57;93945.19;;;19.74;40.98
48035;BME280;33812;46.480;6.834;2023-03-20T19:54:00;93944.97;;;19.85;41.43
48035;BME280;33812;46.480;6.834;2023-03-20T19:58:02;93929.59;;;20.25;41.82
48035;BME280;33812;46.480;6.834;2023-03-20T20:02:05;93939.03;;;20.07;41.67
48035;BME280;33812;46.480;6.834;2023-03-20T20:06:07;93930.31;;;19.88;40.85
48035;BME280;33812;46.480;6.834;2023-03-20T20:10:10;93928.03;;;20.24;41.53
48035;BME280;33812;46.480;6.834;2023-03-20T20:14:13;93938.66;;;20.25;42.17
48035;BME280;33812;46.480;6.834;2023-03-20T20:18:15;93935.34;;;19.93;42.03
48035;BME280;33812;46.480;6.834;2023-03-20T20:22:17;93921.13;;;19.95;42.07
48035;BME280;33812;46.480;6.834;2023-03-20T20:26:20;93916.13;;;20.27;42.62
48035;BME280;33812;46.480;6.834;2023-03-20T20:30:22;93918.38;;;20.15;41.95
48035;BME280;33812;46.480;6.834;2023-03-20T20:34:24;93900.97;;;20.35;42.74
48035;BME280;33812;46.480;6.834;2023-03-20T20:38:26;93905.53;;;20.42;41.40
48035;BME280;33812;46.480;6.834;2023-03-20T20:42:29;93903.47;;;20.46;41.75
48035;BME280;33812;46.480;6.834;2023-03-20T20:46:31;93908.22;;;20.29;41.57
48035;BME280;33812;46.480;6.834;2023-03-20T20:50:34;93903.47;;;20.46;41.88
48035;BME280;33812;46.480;6.834;2023-03-20T20:54:36;93906.59;;;20.48;41.21
48035;BME280;33812;46.480;6.834;2023-03-20T20:58:42;93895.63;;;20.45;41.26
48035;BME280;33812;46.480;6.834;2023-03-20T21:02:44;93897.84;;;20.16;39.82
48035;BME280;33812;46.480;6.834;2023-03-20T21:06:46;93897.09;;;20.33;40.93
48035;BME280;33812;46.480;6.834;2023-03-20T21:10:47;93898.03;;;20.42;40.53
48035;BME280;33812;46.480;6.834;2023-03-20T21:14:51;93897.19;;;20.46;40.32
48035;BME280;33812;46.480;6.834;2023-03-20T21:18:53;93897.69;;;20.40;40.24
48035;BME280;33812;46.480;6.834;2023-03-20T21:22:55;93898.84;;;20.43;40.41
48035;BME280;33812;46.480;6.834;2023-03-20T21:26:57;93900.38;;;20.27;39.24
48035;BME280;33812;46.480;6.834;2023-03-20T21:31:00;93889.75;;;20.26;40.14
48035;BME280;33812;46.480;6.834;2023-03-20T21:35:04;93892.59;;;20.02;40.24
48035;BME280;33812;46.480;6.834;2023-03-20T21:39:07;93889.13;;;20.18;40.28
48035;BME280;33812;46.480;6.834;2023-03-20T21:43:09;93887.50;;;20.00;39.72
48035;BME280;33812;46.480;6.834;2023-03-20T21:47:13;93886.59;;;19.70;40.39
48035;BME280;33812;46.480;6.834;2023-03-20T21:51:15;93892.03;;;20.11;39.85